sensor_id;sensor_type;location;lat;lon;timestamp;temperature;humidity
45319;DHT22;31057;48.498;32.260;2022-12-10T00:00:10;3.50;99.90
45319;DHT22;31057;48.498;32.260;2022-12-10T02:16:05;2.90;99.90
45319;DHT22;31057;48.498;32.260;2022-12-10T02:22:49;2.70;99.90
45319;DHT22;31057;48.498;32.260;2022-12-10T02:24:53;2.90;99.90
45319;DHT22;31057;48.498;32.260;2022-12-10T02:27:14;2.90;99.90
45319;DHT22;31057;48.498;32.260;2022-12-10T02:29:20;2.80;99.90
45319;DHT22;31057;48.498;32.260;2022-12-10T02:31:29;2.70;99.90
45319;DHT22;31057;48.498;32.260;2022-12-10T02:33:33;2.80;99.90
45319;DHT22;31057;48.498;32.260;2022-12-10T02:35:38;2.80;99.90
45319;DHT22;31057;48.498;32.260;2022-12-10T02:38:05;2.80;99.90
45319;DHT22;31057;48.498;32.260;2022-12-10T02:40:13;3.00;99.90
45319;DHT22;31057;48.498;32.260;2022-12-10T02:42:18;2.90;99.90
45319;DHT22;31057;48.498;32.260;2022-12-10T02:44:23;2.90;99.90
45319;DHT22;31057;48.498;32.260;2022-12-10T02:46:26;2.80;99.90
45319;DHT22;31057;48.498;32.260;2022-12-10T02:48:32;2.80;99.90
45319;DHT22;31057;48.498;32.260;2022-12-10T02:50:35;2.90;99.90
45319;DHT22;31057;48.498;32.260;2022-12-10T02:52:38;2.80;99.90
45319;DHT22;31057;48.498;32.260;2022-12-10T02:54:41;2.80;99.90
45319;DHT22;31057;48.498;32.260;2022-12-10T02:56:52;2.80;99.90
45319;DHT22;31057;48.498;32.260;2022-12-10T03:01:16;3.00;99.90
45319;DHT22;31057;48.498;32.260;2022-12-10T03:03:28;2.90;99.90
45319;DHT22;31057;48.498;32.260;2022-12-10T03:06:09;2.90;99.90
45319;DHT22;31057;48.498;32.260;2022-12-10T03:08:14;2.90;99.90
45319;DHT22;31057;48.498;32.260;2022-12-10T03:12:46;3.20;99.90
45319;DHT22;31057;48.498;32.260;2022-12-10T03:14:49;3.20;99.90
45319;DHT22;31057;48.498;32.260;2022-12-10T03:17:01;3.10;99.90
45319;DHT22;31057;48.498;32.260;2022-12-10T03:19:07;3.10;99.90
45319;DHT22;31057;48.498;32.260;2022-12-10T03:21:13;3.10;99.90
45319;DHT22;31057;48.498;32.260;2022-12-10T03:23:18;3.10;99.90
45319;DHT22;31057;48.498;32.260;2022-12-10T03:25:24;3.10;99.90
45319;DHT22;31057;48.498;32.260;2022-12-10T03:27:28;3.00;99.90
45319;DHT22;31057;48.498;32.260;2022-12-10T03:29:38;3.40;99.90
45319;DHT22;31057;48.498;32.260;2022-12-10T03:31:41;3.20;99.90
45319;DHT22;31057;48.498;32.260;2022-12-10T03:33:45;3.40;99.90
45319;DHT22;31057;48.498;32.260;2022-12-10T03:35:48;3.30;99.90
45319;DHT22;31057;48.498;32.260;2022-12-10T03:37:51;3.30;99.90
45319;DHT22;31057;48.498;32.260;2022-12-10T03:39:54;3.20;99.90
45319;DHT22;31057;48.498;32.260;2022-12-10T03:41:57;3.20;99.90
45319;DHT22;31057;48.498;32.260;2022-12-10T03:44:00;3.20;99.90
45319;DHT22;31057;48.498;32.260;2022-12-10T03:46:02;3.40;99.90
45319;DHT22;31057;48.498;32.260;2022-12-10T03:48:04;3.30;99.90
45319;DHT22;31057;48.498;32.260;2022-12-10T03:50:06;3.50;99.90
45319;DHT22;31057;48.498;32.260;2022-12-10T03:52:09;3.30;99.90
45319;DHT22;31057;48.498;32.260;2022-12-10T03:54:11;3.20;99.90
45319;DHT22;31057;48.498;32.260;2022-12-10T03:56:13;3.30;99.90
45319;DHT22;31057;48.498;32.260;2022-12-10T03:58:15;3.20;99.90
45319;DHT22;31057;48.498;32.260;2022-12-10T04:00:21;3.30;99.90
45319;DHT22;31057;48.498;32.260;2022-12-10T04:02:23;3.20;99.90
45319;DHT22;31057;48.498;32.260;2022-12-10T04:04:26;3.40;99.90
45319;DHT22;31057;48.498;32.260;2022-12-10T04:06:28;3.50;99.90
45319;DHT22;31057;48.498;32.260;2022-12-10T04:08:30;3.40;99.90
45319;DHT22;31057;48.498;32.260;2022-12-10T04:10:36;3.40;99.90
45319;DHT22;31057;48.498;32.260;2022-12-10T04:12:38;3.30;99.90
45319;DHT22;31057;48.498;32.260;2022-12-10T04:14:40;3.20;99.90
45319;DHT22;31057;48.498;32.260;2022-12-10T04:17:01;3.30;99.90
45319;DHT22;31057;48.498;32.260;2022-12-10T04:19:03;3.30;99.90
45319;DHT22;31057;48.498;32.260;2022-12-10T04:21:06;3.50;99.90
45319;DHT22;31057;48.498;32.260;2022-12-10T04:23:26;3.60;99.90
45319;DHT22;31057;48.498;32.260;2022-12-10T04:25:47;3.60;99.90
45319;DHT22;31057;48.498;32.260;2022-12-10T04:28:07;3.40;99.90
45319;DHT22;31057;48.498;32.260;2022-12-10T04:30:11;3.40;99.90
45319;DHT22;31057;48.498;32.260;2022-12-10T04:32:14;3.50;99.90
45319;DHT22;31057;48.498;32.260;2022-12-10T04:34:16;3.50;99.90
45319;DHT22;31057;48.498;32.260;2022-12-10T04:36:18;3.60;99.90
45319;DHT22;31057;48.498;32.260;2022-12-10T04:38:20;3.60;99.90
45319;DHT22;31057;48.498;32.260;2022-12-10T04:40:21;3.60;99.90
45319;DHT22;31057;48.498;32.260;2022-12-10T04:42:23;3.50;99.90
45319;DHT22;31057;48.498;32.260;2022-12-10T04:44:25;3.40;99.90
45319;DHT22;31057;48.498;32.260;2022-12-10T04:46:28;3.40;99.90
45319;DHT22;31057;48.498;32.260;2022-12-10T04:48:30;3.50;99.90
45319;DHT22;31057;48.498;32.260;2022-12-10T04:50:33;3.40;99.90
45319;DHT22;31057;48.498;32.260;2022-12-10T04:52:35;3.40;99.90
45319;DHT22;31057;48.498;32.260;2022-12-10T04:54:37;3.50;99.90
45319;DHT22;31057;48.498;32.260;2022-12-10T04:56:40;3.60;99.90
45319;DHT22;31057;48.498;32.260;2022-12-10T04:58:42;3.50;99.90
45319;DHT22;31057;48.498;32.260;2022-12-10T05:00:44;3.60;99.90
45319;DHT22;31057;48.498;32.260;2022-12-10T05:02:48;3.60;99.90
45319;DHT22;31057;48.498;32.260;2022-12-10T05:04:50;3.60;99.90
45319;DHT22;31057;48.498;32.260;2022-12-10T05:06:52;3.50;99.90
45319;DHT22;31057;48.498;32.260;2022-12-10T05:08:54;3.50;99.90
45319;DHT22;31057;48.498;32.260;2022-12-10T05:11:03;3.50;99.90
45319;DHT22;31057;48.498;32.260;2022-12-10T05:13:06;3.60;99.90
45319;DHT22;31057;48.498;32.260;2022-12-10T05:15:08;3.60;99.90
45319;DHT22;31057;48.498;32.260;2022-12-10T05:17:10;3.60;99.90
45319;DHT22;31057;48.498;32.260;2022-12-10T05:19:12;3.50;99.90
45319;DHT22;31057;48.498;32.260;2022-12-10T05:21:16;3.60;99.90
45319;DHT22;31057;48.498;32.260;2022-12-10T05:23:19;3.60;99.90
45319;DHT22;31057;48.498;32.260;2022-12-10T05:25:29;3.60;99.90
45319;DHT22;31057;48.498;32.260;2022-12-10T05:27:33;3.60;99.90
45319;DHT22;31057;48.498;32.260;2022-12-10T05:29:35;3.60;99.90
45319;DHT22;31057;48.498;32.260;2022-12-10T05:31:37;3.70;99.90
45319;DHT22;31057;48.498;32.260;2022-12-10T05:33:39;4.00;99.90
45319;DHT22;31057;48.498;32.260;2022-12-10T05:35:41;3.70;99.90
45319;DHT22;31057;48.498;32.260;2022-12-10T05:37:43;3.70;99.90
45319;DHT22;31057;48.498;32.260;2022-12-10T05:39:45;3.70;99.90
45319;DHT22;31057;48.498;32.260;2022-12-10T05:41:47;3.70;99.90
45319;DHT22;31057;48.498;32.260;2022-12-10T05:43:49;3.60;99.90
45319;DHT22;31057;48.498;32.260;2022-12-10T05:45:50;3.70;99.90
45319;DHT22;31057;48.498;32.260;2022-12-10T05:47:52;3.70;99.90
45319;DHT22;31057;48.498;32.260;2022-12-10T05:49:54;3.90;99.90
45319;DHT22;31057;48.498;32.260;2022-12-10T05:51:56;3.70;99.90
45319;DHT22;31057;48.498;32.260;2022-12-10T05:53:59;3.70;99.90
45319;DHT22;31057;48.498;32.260;2022-12-10T05:56:05;3.70;99.90
45319;DHT22;31057;48.498;32.260;2022-12-10T05:58:08;3.70;99.90
45319;DHT22;31057;48.498;32.260;2022-12-10T06:00:10;3.70;99.90
45319;DHT22;31057;48.498;32.260;2022-12-10T06:02:12;3.70;99.90
45319;DHT22;31057;48.498;32.260;2022-12-10T08:16:27;5.40;99.90
45319;DHT22;31057;48.498;32.260;2022-12-10T08:18:31;5.60;99.90
45319;DHT22;31057;48.498;32.260;2022-12-10T08:20:33;5.50;99.90
45319;DHT22;31057;48.498;32.260;2022-12-10T08:22:35;5.60;99.90
45319;DHT22;31057;48.498;32.260;2022-12-10T08:24:37;5.70;99.90
45319;DHT22;31057;48.498;32.260;2022-12-10T08:26:39;5.70;99.90
45319;DHT22;31057;48.498;32.260;2022-12-10T08:28:42;5.70;99.90
45319;DHT22;31057;48.498;32.260;2022-12-10T08:30:48;5.70;99.90
45319;DHT22;31057;48.498;32.260;2022-12-10T08:32:51;5.80;99.90
45319;DHT22;31057;48.498;32.260;2022-12-10T08:34:52;5.80;99.90
45319;DHT22;31057;48.498;32.260;2022-12-10T08:36:54;5.90;99.90
45319;DHT22;31057;48.498;32.260;2022-12-10T08:38:56;5.90;99.90
45319;DHT22;31057;48.498;32.260;2022-12-10T08:40:58;5.90;99.90
45319;DHT22;31057;48.498;32.260;2022-12-10T08:43:00;6.00;99.90
45319;DHT22;31057;48.498;32.260;2022-12-10T08:45:02;6.10;99.90
45319;DHT22;31057;48.498;32.260;2022-12-10T08:47:05;6.10;99.90
45319;DHT22;31057;48.498;32.260;2022-12-10T08:49:07;6.10;99.90
45319;DHT22;31057;48.498;32.260;2022-12-10T08:51:11;6.20;99.90
45319;DHT22;31057;48.498;32.260;2022-12-10T08:53:14;6.10;99.90
45319;DHT22;31057;48.498;32.260;2022-12-10T08:55:16;6.20;99.90
45319;DHT22;31057;48.498;32.260;2022-12-10T08:57:18;6.20;99.90
45319;DHT22;31057;48.498;32.260;2022-12-10T08:59:20;6.30;99.90
45319;DHT22;31057;48.498;32.260;2022-12-10T09:01:22;6.40;99.90
45319;DHT22;31057;48.498;32.260;2022-12-10T09:03:24;6.40;99.90
45319;DHT22;31057;48.498;32.260;2022-12-10T09:05:26;6.50;99.90
45319;DHT22;31057;48.498;32.260;2022-12-10T09:07:28;6.50;99.90
45319;DHT22;31057;48.498;32.260;2022-12-10T09:09:34;6.60;99.90
45319;DHT22;31057;48.498;32.260;2022-12-10T09:11:36;6.60;99.90
45319;DHT22;31057;48.498;32.260;2022-12-10T09:13:38;6.70;99.90
45319;DHT22;31057;48.498;32.260;2022-12-10T09:15:40;6.90;99.90
45319;DHT22;31057;48.498;32.260;2022-12-10T09:17:42;6.80;99.90
45319;DHT22;31057;48.498;32.260;2022-12-10T09:19:44;6.80;99.90
45319;DHT22;31057;48.498;32.260;2022-12-10T09:21:46;6.90;99.90
45319;DHT22;31057;48.498;32.260;2022-12-10T09:23:49;6.90;99.90
45319;DHT22;31057;48.498;32.260;2022-12-10T09:25:52;6.90;99.90
45319;DHT22;31057;48.498;32.260;2022-12-10T09:27:54;7.00;99.90
45319;DHT22;31057;48.498;32.260;2022-12-10T09:29:56;7.20;99.90
45319;DHT22;31057;48.498;32.260;2022-12-10T09:31:58;7.30;99.90
45319;DHT22;31057;48.498;32.260;2022-12-10T09:34:00;7.30;99.90
45319;DHT22;31057;48.498;32.260;2022-12-10T09:36:03;7.30;99.90
45319;DHT22;31057;48.498;32.260;2022-12-10T09:38:08;7.40;99.90
45319;DHT22;31057;48.498;32.260;2022-12-10T09:40:16;7.40;99.90
45319;DHT22;31057;48.498;32.260;2022-12-10T09:45:52;7.50;99.90
45319;DHT22;31057;48.498;32.260;2022-12-10T09:47:49;7.70;99.90
45319;DHT22;31057;48.498;32.260;2022-12-10T09:50:31;7.80;99.90
45319;DHT22;31057;48.498;32.260;2022-12-10T09:52:37;7.60;99.90
45319;DHT22;31057;48.498;32.260;2022-12-10T09:54:46;7.60;99.90
45319;DHT22;31057;48.498;32.260;2022-12-10T09:56:51;7.70;99.90
45319;DHT22;31057;48.498;32.260;2022-12-10T09:58:54;7.70;99.90
45319;DHT22;31057;48.498;32.260;2022-12-10T10:01:04;7.80;99.90
45319;DHT22;31057;48.498;32.260;2022-12-10T10:03:12;8.00;99.90
45319;DHT22;31057;48.498;32.260;2022-12-10T10:05:26;8.00;99.90
45319;DHT22;31057;48.498;32.260;2022-12-10T10:07:30;8.00;99.90
45319;DHT22;31057;48.498;32.260;2022-12-10T10:09:37;8.10;99.90
45319;DHT22;31057;48.498;32.260;2022-12-10T10:11:40;8.10;99.90
45319;DHT22;31057;48.498;32.260;2022-12-10T10:13:47;8.20;99.90
45319;DHT22;31057;48.498;32.260;2022-12-10T10:15:51;8.20;99.90
45319;DHT22;31057;48.498;32.260;2022-12-10T10:17:56;8.30;99.90
45319;DHT22;31057;48.498;32.260;2022-12-10T10:19:59;8.40;99.90
45319;DHT22;31057;48.498;32.260;2022-12-10T10:22:01;8.50;99.90
45319;DHT22;31057;48.498;32.260;2022-12-10T10:24:07;8.40;99.90
45319;DHT22;31057;48.498;32.260;2022-12-10T10:26:12;8.60;99.90
45319;DHT22;31057;48.498;32.260;2022-12-10T10:28:19;8.50;99.90
45319;DHT22;31057;48.498;32.260;2022-12-10T10:30:23;8.50;99.90
45319;DHT22;31057;48.498;32.260;2022-12-10T10:34:55;8.60;99.90
45319;DHT22;31057;48.498;32.260;2022-12-10T10:36:57;8.60;99.90
45319;DHT22;31057;48.498;32.260;2022-12-10T10:39:10;8.60;99.90
45319;DHT22;31057;48.498;32.260;2022-12-10T10:41:13;8.60;99.90
45319;DHT22;31057;48.498;32.260;2022-12-10T10:43:28;8.60;99.90
45319;DHT22;31057;48.498;32.260;2022-12-10T10:45:39;8.70;99.90
45319;DHT22;31057;48.498;32.260;2022-12-10T10:47:42;8.70;99.90
45319;DHT22;31057;48.498;32.260;2022-12-10T10:49:44;8.70;99.90
45319;DHT22;31057;48.498;32.260;2022-12-10T10:51:46;8.70;99.90
45319;DHT22;31057;48.498;32.260;2022-12-10T10:53:55;8.80;99.90
45319;DHT22;31057;48.498;32.260;2022-12-10T10:56:05;8.70;99.90
45319;DHT22;31057;48.498;32.260;2022-12-10T10:58:17;8.80;99.90
45319;DHT22;31057;48.498;32.260;2022-12-10T11:00:22;8.80;99.90
45319;DHT22;31057;48.498;32.260;2022-12-10T11:02:34;8.80;99.90
45319;DHT22;31057;48.498;32.260;2022-12-10T11:04:38;8.90;99.90
45319;DHT22;31057;48.498;32.260;2022-12-10T11:06:46;8.90;99.90
45319;DHT22;31057;48.498;32.260;2022-12-10T11:08:48;9.00;99.90
45319;DHT22;31057;48.498;32.260;2022-12-10T11:10:51;8.90;99.90
45319;DHT22;31057;48.498;32.260;2022-12-10T11:17:46;9.00;99.90
45319;DHT22;31057;48.498;32.260;2022-12-10T11:19:59;9.10;99.90
45319;DHT22;31057;48.498;32.260;2022-12-10T11:22:24;9.10;99.90
45319;DHT22;31057;48.498;32.260;2022-12-10T11:24:26;9.10;99.90
45319;DHT22;31057;48.498;32.260;2022-12-10T11:26:40;9.10;99.90
45319;DHT22;31057;48.498;32.260;2022-12-10T11:28:56;9.10;99.90
45319;DHT22;31057;48.498;32.260;2022-12-10T11:50:27;9.60;99.90
45319;DHT22;31057;48.498;32.260;2022-12-10T11:53:11;9.70;99.90
45319;DHT22;31057;48.498;32.260;2022-12-10T11:59:34;9.70;99.90
45319;DHT22;31057;48.498;32.260;2022-12-10T14:18:11;10.80;99.90
45319;DHT22;31057;48.498;32.260;2022-12-10T14:20:17;10.90;99.90
45319;DHT22;31057;48.498;32.260;2022-12-10T14:24:37;10.80;99.90
45319;DHT22;31057;48.498;32.260;2022-12-10T14:26:39;11.00;99.90
45319;DHT22;31057;48.498;32.260;2022-12-10T14:28:44;10.90;99.90
45319;DHT22;31057;48.498;32.260;2022-12-10T14:30:48;10.80;99.90
45319;DHT22;31057;48.498;32.260;2022-12-10T14:32:54;10.80;99.90
45319;DHT22;31057;48.498;32.260;2022-12-10T14:34:57;10.80;99.90
45319;DHT22;31057;48.498;32.260;2022-12-10T14:37:02;10.80;99.90
45319;DHT22;31057;48.498;32.260;2022-12-10T14:39:17;10.80;99.90
45319;DHT22;31057;48.498;32.260;2022-12-10T14:41:24;10.70;99.90
45319;DHT22;31057;48.498;32.260;2022-12-10T14:47:48;10.80;99.90
45319;DHT22;31057;48.498;32.260;2022-12-10T14:49:53;10.70;99.90
45319;DHT22;31057;48.498;32.260;2022-12-10T14:52:00;10.60;99.90
45319;DHT22;31057;48.498;32.260;2022-12-10T14:54:02;10.60;99.90
45319;DHT22;31057;48.498;32.260;2022-12-10T14:56:05;10.90;99.90
45319;DHT22;31057;48.498;32.260;2022-12-10T14:58:15;10.80;99.90
45319;DHT22;31057;48.498;32.260;2022-12-10T15:00:20;10.70;99.90
45319;DHT22;31057;48.498;32.260;2022-12-10T15:02:27;10.60;99.90
45319;DHT22;31057;48.498;32.260;2022-12-10T15:04:40;10.70;99.90
45319;DHT22;31057;48.498;32.260;2022-12-10T15:06:43;10.60;99.90
45319;DHT22;31057;48.498;32.260;2022-12-10T15:08:47;10.50;99.90
45319;DHT22;31057;48.498;32.260;2022-12-10T15:10:52;10.70;99.90
45319;DHT22;31057;48.498;32.260;2022-12-10T15:12:56;10.60;99.90
45319;DHT22;31057;48.498;32.260;2022-12-10T15:15:04;11.10;99.90
45319;DHT22;31057;48.498;32.260;2022-12-10T15:17:41;10.60;99.90
45319;DHT22;31057;48.498;32.260;2022-12-10T15:19:50;10.60;99.90
45319;DHT22;31057;48.498;32.260;2022-12-10T15:22:15;10.50;99.90
45319;DHT22;31057;48.498;32.260;2022-12-10T15:24:28;10.50;99.90
45319;DHT22;31057;48.498;32.260;2022-12-10T15:26:34;10.60;99.90
45319;DHT22;31057;48.498;32.260;2022-12-10T15:28:39;10.60;99.90
45319;DHT22;31057;48.498;32.260;2022-12-10T15:30:41;10.50;99.90
45319;DHT22;31057;48.498;32.260;2022-12-10T15:32:48;10.50;99.90
45319;DHT22;31057;48.498;32.260;2022-12-10T15:34:59;10.50;99.90
45319;DHT22;31057;48.498;32.260;2022-12-10T15:37:03;10.50;99.90
45319;DHT22;31057;48.498;32.260;2022-12-10T15:41:32;10.50;99.90
45319;DHT22;31057;48.498;32.260;2022-12-10T15:43:36;10.50;99.90
45319;DHT22;31057;48.498;32.260;2022-12-10T15:45:40;10.40;99.90
45319;DHT22;31057;48.498;32.260;2022-12-10T15:47:43;10.60;99.90
45319;DHT22;31057;48.498;32.260;2022-12-10T15:49:46;10.50;99.90
45319;DHT22;31057;48.498;32.260;2022-12-10T15:51:49;10.50;99.90
45319;DHT22;31057;48.498;32.260;2022-12-10T15:53:51;10.50;99.90
45319;DHT22;31057;48.498;32.260;2022-12-10T15:55:53;10.40;99.90
45319;DHT22;31057;48.498;32.260;2022-12-10T15:57:56;10.40;99.90
45319;DHT22;31057;48.498;32.260;2022-12-10T16:00:00;10.40;99.90
45319;DHT22;31057;48.498;32.260;2022-12-10T16:04:19;10.50;99.90
45319;DHT22;31057;48.498;32.260;2022-12-10T16:06:21;10.50;99.90
45319;DHT22;31057;48.498;32.260;2022-12-10T16:08:27;10.40;99.90
45319;DHT22;31057;48.498;32.260;2022-12-10T16:10:30;10.40;99.90
45319;DHT22;31057;48.498;32.260;2022-12-10T16:12:32;10.30;99.90
45319;DHT22;31057;48.498;32.260;2022-12-10T16:14:46;10.30;99.90
45319;DHT22;31057;48.498;32.260;2022-12-10T16:16:49;10.30;99.90
45319;DHT22;31057;48.498;32.260;2022-12-10T16:18:51;10.40;99.90
45319;DHT22;31057;48.498;32.260;2022-12-10T16:20:54;10.40;99.90
45319;DHT22;31057;48.498;32.260;2022-12-10T16:22:57;10.40;99.90
45319;DHT22;31057;48.498;32.260;2022-12-10T16:25:17;10.40;99.90
45319;DHT22;31057;48.498;32.260;2022-12-10T16:27:19;10.40;99.90
45319;DHT22;31057;48.498;32.260;2022-12-10T16:29:21;10.40;99.90
45319;DHT22;31057;48.498;32.260;2022-12-10T16:31:23;10.40;99.90
45319;DHT22;31057;48.498;32.260;2022-12-10T16:33:25;10.30;99.90
45319;DHT22;31057;48.498;32.260;2022-12-10T16:35:27;10.30;99.90
45319;DHT22;31057;48.498;32.260;2022-12-10T16:37:29;10.50;99.90
45319;DHT22;31057;48.498;32.260;2022-12-10T16:39:32;10.40;99.90
45319;DHT22;31057;48.498;32.260;2022-12-10T16:41:35;10.30;99.90
45319;DHT22;31057;48.498;32.260;2022-12-10T16:43:37;10.30;99.90
45319;DHT22;31057;48.498;32.260;2022-12-10T16:45:39;10.30;99.90
45319;DHT22;31057;48.498;32.260;2022-12-10T16:47:41;10.30;99.90
45319;DHT22;31057;48.498;32.260;2022-12-10T16:49:43;10.30;99.90
45319;DHT22;31057;48.498;32.260;2022-12-10T16:51:45;10.20;99.90
45319;DHT22;31057;48.498;32.260;2022-12-10T16:53:47;10.30;99.90
45319;DHT22;31057;48.498;32.260;2022-12-10T16:55:49;10.30;99.90
45319;DHT22;31057;48.498;32.260;2022-12-10T16:57:52;10.30;99.90
45319;DHT22;31057;48.498;32.260;2022-12-10T16:59:55;10.20;99.90
45319;DHT22;31057;48.498;32.260;2022-12-10T17:01:57;10.20;99.90
45319;DHT22;31057;48.498;32.260;2022-12-10T17:03:59;10.20;99.90
45319;DHT22;31057;48.498;32.260;2022-12-10T17:06:02;10.20;99.90
45319;DHT22;31057;48.498;32.260;2022-12-10T17:08:07;10.10;99.90
45319;DHT22;31057;48.498;32.260;2022-12-10T17:10:13;10.20;99.90
45319;DHT22;31057;48.498;32.260;2022-12-10T17:12:16;10.20;99.90
45319;DHT22;31057;48.498;32.260;2022-12-10T17:14:30;10.20;99.90
45319;DHT22;31057;48.498;32.260;2022-12-10T17:16:35;10.10;99.90
45319;DHT22;31057;48.498;32.260;2022-12-10T17:18:37;10.20;99.90
45319;DHT22;31057;48.498;32.260;2022-12-10T17:20:39;10.30;99.90
45319;DHT22;31057;48.498;32.260;2022-12-10T17:22:45;10.20;99.90
45319;DHT22;31057;48.498;32.260;2022-12-10T17:24:47;10.10;99.90
45319;DHT22;31057;48.498;32.260;2022-12-10T17:26:50;10.10;99.90
45319;DHT22;31057;48.498;32.260;2022-12-10T17:28:56;10.10;99.90
45319;DHT22;31057;48.498;32.260;2022-12-10T17:31:01;10.10;99.90
45319;DHT22;31057;48.498;32.260;2022-12-10T17:33:03;10.20;99.90
45319;DHT22;31057;48.498;32.260;2022-12-10T17:35:05;10.00;99.90
45319;DHT22;31057;48.498;32.260;2022-12-10T17:37:19;10.00;99.90
45319;DHT22;31057;48.498;32.260;2022-12-10T17:39:22;10.10;99.90
45319;DHT22;31057;48.498;32.260;2022-12-10T17:41:27;10.20;99.90
45319;DHT22;31057;48.498;32.260;2022-12-10T17:43:29;10.20;99.90
45319;DHT22;31057;48.498;32.260;2022-12-10T17:45:31;10.00;99.90
45319;DHT22;31057;48.498;32.260;2022-12-10T17:47:36;10.10;99.90
45319;DHT22;31057;48.498;32.260;2022-12-10T17:49:38;10.00;99.90
45319;DHT22;31057;48.498;32.260;2022-12-10T17:51:40;10.00;99.90
45319;DHT22;31057;48.498;32.260;2022-12-10T17:53:42;10.00;99.90
45319;DHT22;31057;48.498;32.260;2022-12-10T17:55:51;9.90;99.90
45319;DHT22;31057;48.498;32.260;2022-12-10T17:57:56;9.90;99.90
45319;DHT22;31057;48.498;32.260;2022-12-10T18:00:00;9.90;99.90
45319;DHT22;31057;48.498;32.260;2022-12-10T18:02:02;9.90;99.90
45319;DHT22;31057;48.498;32.260;2022-12-10T20:14:30;9.90;99.90
45319;DHT22;31057;48.498;32.260;2022-12-10T20:16:32;9.80;99.90
45319;DHT22;31057;48.498;32.260;2022-12-10T20:18:34;9.70;99.90
45319;DHT22;31057;48.498;32.260;2022-12-10T20:20:36;9.60;99.90
45319;DHT22;31057;48.498;32.260;2022-12-10T20:22:41;9.60;99.90
45319;DHT22;31057;48.498;32.260;2022-12-10T20:24:43;9.60;99.90
45319;DHT22;31057;48.498;32.260;2022-12-10T20:26:47;9.70;99.90
45319;DHT22;31057;48.498;32.260;2022-12-10T20:28:50;9.70;99.90
45319;DHT22;31057;48.498;32.260;2022-12-10T20:30:52;9.80;99.90
45319;DHT22;31057;48.498;32.260;2022-12-10T20:32:55;9.60;99.90
45319;DHT22;31057;48.498;32.260;2022-12-10T20:34:57;9.70;99.90
45319;DHT22;31057;48.498;32.260;2022-12-10T20:36:59;9.60;99.90
45319;DHT22;31057;48.498;32.260;2022-12-10T20:39:01;9.60;99.90
45319;DHT22;31057;48.498;32.260;2022-12-10T20:41:03;9.60;99.90
45319;DHT22;31057;48.498;32.260;2022-12-10T20:43:05;9.70;99.90
45319;DHT22;31057;48.498;32.260;2022-12-10T20:45:07;9.60;99.90
45319;DHT22;31057;48.498;32.260;2022-12-10T20:47:10;9.60;99.90
45319;DHT22;31057;48.498;32.260;2022-12-10T20:49:14;9.50;99.90
45319;DHT22;31057;48.498;32.260;2022-12-10T20:51:16;9.60;99.90
45319;DHT22;31057;48.498;32.260;2022-12-10T20:53:20;9.50;99.90
45319;DHT22;31057;48.498;32.260;2022-12-10T20:55:22;10.00;99.90
45319;DHT22;31057;48.498;32.260;2022-12-10T20:57:24;10.00;99.90
45319;DHT22;31057;48.498;32.260;2022-12-10T20:59:26;9.70;99.90
45319;DHT22;31057;48.498;32.260;2022-12-10T21:01:35;9.50;99.90
45319;DHT22;31057;48.498;32.260;2022-12-10T21:03:37;9.50;99.90
45319;DHT22;31057;48.498;32.260;2022-12-10T21:05:39;9.50;99.90
45319;DHT22;31057;48.498;32.260;2022-12-10T21:07:42;9.50;99.90
45319;DHT22;31057;48.498;32.260;2022-12-10T21:09:45;9.50;99.90
45319;DHT22;31057;48.498;32.260;2022-12-10T21:11:46;9.50;99.90
45319;DHT22;31057;48.498;32.260;2022-12-10T21:13:49;9.50;99.90
45319;DHT22;31057;48.498;32.260;2022-12-10T21:15:51;9.40;99.90
45319;DHT22;31057;48.498;32.260;2022-12-10T21:17:53;9.40;99.90
45319;DHT22;31057;48.498;32.260;2022-12-10T21:19:55;9.30;99.90
45319;DHT22;31057;48.498;32.260;2022-12-10T21:21:57;9.40;99.90
45319;DHT22;31057;48.498;32.260;2022-12-10T21:23:59;9.40;99.90
45319;DHT22;31057;48.498;32.260;2022-12-10T21:26:04;9.30;99.90
45319;DHT22;31057;48.498;32.260;2022-12-10T21:28:07;9.40;99.90
45319;DHT22;31057;48.498;32.260;2022-12-10T21:30:10;9.40;99.90
45319;DHT22;31057;48.498;32.260;2022-12-10T21:32:13;9.40;99.90
45319;DHT22;31057;48.498;32.260;2022-12-10T21:34:15;9.40;99.90
45319;DHT22;31057;48.498;32.260;2022-12-10T21:36:19;9.40;99.90
45319;DHT22;31057;48.498;32.260;2022-12-10T21:38:23;9.30;99.90
45319;DHT22;31057;48.498;32.260;2022-12-10T21:40:25;9.20;99.90
45319;DHT22;31057;48.498;32.260;2022-12-10T21:42:27;9.20;99.90
45319;DHT22;31057;48.498;32.260;2022-12-10T21:44:52;9.20;99.90
45319;DHT22;31057;48.498;32.260;2022-12-10T21:46:54;9.20;99.90
45319;DHT22;31057;48.498;32.260;2022-12-10T21:48:56;9.20;99.90
45319;DHT22;31057;48.498;32.260;2022-12-10T21:51:00;9.20;99.90
45319;DHT22;31057;48.498;32.260;2022-12-10T21:53:02;9.10;99.90
45319;DHT22;31057;48.498;32.260;2022-12-10T21:55:04;9.30;99.90
45319;DHT22;31057;48.498;32.260;2022-12-10T21:57:06;9.20;99.90
45319;DHT22;31057;48.498;32.260;2022-12-10T21:59:08;9.20;99.90
45319;DHT22;31057;48.498;32.260;2022-12-10T22:01:10;9.20;99.90
45319;DHT22;31057;48.498;32.260;2022-12-10T22:03:13;9.10;99.90
45319;DHT22;31057;48.498;32.260;2022-12-10T22:05:16;9.10;99.90
45319;DHT22;31057;48.498;32.260;2022-12-10T22:07:17;9.10;99.90
45319;DHT22;31057;48.498;32.260;2022-12-10T22:09:19;9.10;99.90
45319;DHT22;31057;48.498;32.260;2022-12-10T22:11:21;9.10;99.90
45319;DHT22;31057;48.498;32.260;2022-12-10T22:13:23;9.10;99.90
45319;DHT22;31057;48.498;32.260;2022-12-10T22:15:25;9.10;99.90
45319;DHT22;31057;48.498;32.260;2022-12-10T22:17:28;9.10;99.90
45319;DHT22;31057;48.498;32.260;2022-12-10T22:19:30;9.20;99.90
45319;DHT22;31057;48.498;32.260;2022-12-10T22:21:32;9.10;99.90
45319;DHT22;31057;48.498;32.260;2022-12-10T22:23:34;9.10;99.90
45319;DHT22;31057;48.498;32.260;2022-12-10T22:25:39;9.10;99.90
45319;DHT22;31057;48.498;32.260;2022-12-10T22:27:41;9.10;99.90
45319;DHT22;31057;48.498;32.260;2022-12-10T22:29:43;9.10;99.90
45319;DHT22;31057;48.498;32.260;2022-12-10T22:31:45;9.10;99.90
45319;DHT22;31057;48.498;32.260;2022-12-10T22:33:47;9.30;99.90
45319;DHT22;31057;48.498;32.260;2022-12-10T22:35:52;9.40;99.90
45319;DHT22;31057;48.498;32.260;2022-12-10T22:37:54;9.10;99.90
45319;DHT22;31057;48.498;32.260;2022-12-10T22:39:56;9.10;99.90
45319;DHT22;31057;48.498;32.260;2022-12-10T22:42:06;9.10;99.90
45319;DHT22;31057;48.498;32.260;2022-12-10T22:44:08;9.10;99.90
45319;DHT22;31057;48.498;32.260;2022-12-10T22:46:10;9.00;99.90
45319;DHT22;31057;48.498;32.260;2022-12-10T22:48:12;9.00;99.90
45319;DHT22;31057;48.498;32.260;2022-12-10T22:50:14;9.00;99.90
45319;DHT22;31057;48.498;32.260;2022-12-10T22:52:16;9.00;99.90